Česky Dansk Deutsch English Español Suomi Français Magyar Italiano Nederlands norsk Polski Português svenska Türkçe

 

Het Weer

Ornskoldsvik Airport (Zweden)

15:50, 2 augustus 2016 (GMT)

NWNNE
WE
SWSSE
Home            
Ornskoldsvik Airport Kramfors Flygplats Umea Flygplats Sundsvall-Harnosand Flygplats Lycksele Vaasa Skelleftea Airport Gunnarn Kauhava Ilmajoki Seinajoki-Ilmajok Kruunupyy Ostersund / Froson Soderhamn Soderhamn Pori Vidsel Ahtari Lulea / Kallax Tampere / Pirkkala Gavle / Sandviken Air Force Base Hailuoto Halli

Om een weerknop op uw website of weblog te plaatsen, copieer onderstaande code en plak die in uw pagina. In het eerste vakje staat HTML-code, in het tweede vakje UBB-code.


Add to Google

Details

Wind speed:2 bf, 6 kn, 3.1 m/s, 6.9 miles/h, 11.1 km/h
Wind direction:S, 190°
Visibility:Greater than 10000 m, 10 km, 32800 ft, 6.2 miles
Clouds:Durchbrochene Bewölkung at 10000 ft, 3048 m
Temperature:18°C, 64°F
Dew-point:12°C, 54°F
Atmospheric pressure:1003 hPa, 752.3 mmHg, 29.62 inHg, 0.990 atm
Relative humidity:68.0 %
METAR:ESNO 021550Z AUTO 19006KT 9999 BKN100 18/12 Q1003

Snelkoppelingen

Actuele weersinformatie van de hele wereld. Voeg locaties toe met het plus (+) symbool. Deze snelkoppelingen kunnen worden toegevoegd aan Google.

Lid van de Technetium groep

website free tracking
StatCounter NetStat W3C Validator

24-10-2020 03:14:47
astro.technetium.be money.technetium.be phote.technetium.be tafeltennistafel.technetium.be www.ligfiets.net